Sch-135 Galibier — PBIB — position and weather

sailwx.info

Track history (hours):
 
Tides and Currents Weather Stations Pressure Air Temp Water Temp Dewpoint Dewpoint Depression Visibility Wind Speed Wind Dir Waves Ship Positions

Sch-135 Galibier

Last reported at 2017-Jan-17 00:33 UTC. Time now 2017-Jan-17 00:57 UTC.
Position N 50°05' W 000°02'.

Length 35 m; draft 4.2 m.

Type: Fishing. MMSI: 244630637.

Date/timePositionNaut miles runAvg speedWind from/ knotsBaromVisibWave heightAir tempDewpointWater temp
2017-Jan-17 00:33N 50°05' W 000°02'5 5.3
2017-Jan-16 23:33N 50°00' W 000°05'5 5.1
2017-Jan-16 22:33N 49°56' W 000°10'3 2.8
2017-Jan-16 21:33N 49°54' W 000°13'1 1.0
2017-Jan-16 20:33N 49°55' W 000°14'4 3.7
2017-Jan-16 19:33N 49°58' W 000°17'4 4.0
2017-Jan-16 18:32N 50°01' W 000°13'4 4.4
2017-Jan-16 17:33N 50°04' W 000°08'1 1.1
2017-Jan-16 16:33N 50°05' W 000°07'1 1.2
2017-Jan-16 15:34N 50°05' W 000°05'1 1.1
2017-Jan-16 14:33N 50°04' W 000°03'3 3.2
2017-Jan-16 13:33N 50°03' E 000°01'6 6.1
2017-Jan-16 12:33N 49°59' E 000°08'1 1.0
2017-Jan-16 11:33N 49°58' E 000°07'1 1.0
2017-Jan-16 10:33N 49°58' E 000°05'6 5.7
2017-Jan-16 09:33N 50°03' E 000°08'3 2.8
2017-Jan-16 08:33N 50°06' E 000°07'2 1.3
2017-Jan-16 07:08N 50°06' E 000°10'  
2017-Jan-11 20:33N 49°60' E 000°14'1010.5
2017-Jan-11 19:34N 49°55' W 000°00'7 6.7
2017-Jan-11 18:33N 49°52' W 000°10'6 6.2
2017-Jan-11 17:33N 49°51' W 000°19'3 3.1
2017-Jan-11 16:33N 49°51' W 000°24'1 1.1
2017-Jan-11 15:33N 49°51' W 000°25'1 0.6
2017-Jan-11 14:33N 49°51' W 000°25'1 1.4
2017-Jan-11 13:33N 49°49' W 000°25'1 0.6
2017-Jan-11 12:33N 49°49' W 000°24'1 1.1
2017-Jan-11 11:33N 49°49' W 000°23'2 1.5
2017-Jan-11 10:33N 49°48' W 000°21'2 1.8
2017-Jan-11 09:33N 49°46' W 000°20'1 0.7
2017-Jan-11 08:33N 49°46' W 000°21'2 1.8
2017-Jan-11 07:33N 49°46' W 000°24'0 0.2
2017-Jan-11 06:33N 49°46' W 000°24'1 0.6
2017-Jan-11 05:33N 49°47' W 000°23'1 1.2
2017-Jan-11 04:33N 49°47' W 000°21'4 4.3
2017-Jan-11 03:33N 49°47' W 000°28'2 1.7
2017-Jan-11 02:33N 49°48' W 000°28'4 4.0
2017-Jan-11 01:33N 49°51' W 000°24'6 5.7
2017-Jan-11 00:33N 49°47' W 000°18'6 5.6
2017-Jan-10 23:33N 49°42' W 000°13'5 5.1
2017-Jan-10 22:33N 49°39' W 000°08'5 4.7
2017-Jan-10 21:33N 49°35' W 000°04'5 5.4
2017-Jan-10 20:33N 49°30' E 000°01'4 4.3
2017-Jan-10 19:33N 49°29' E 000°07'2 1.5
2017-Jan-10 18:33N 49°29' E 000°05'9 8.5
2017-Jan-10 17:33N 49°35' W 000°05'1110.9
2017-Jan-10 16:33N 49°42' W 000°18'6 6.3
2017-Jan-10 15:33N 49°46' W 000°25'2 2.2
2017-Jan-10 14:34N 49°47' W 000°27'2 1.5
2017-Jan-10 13:34N 49°49' W 000°27'1 1.0
2017-Jan-10 12:33N 49°48' W 000°27'1 0.7
2017-Jan-10 11:33N 49°48' W 000°26'2 2.0
2017-Jan-10 10:33N 49°50' W 000°23'1 1.2
2017-Jan-10 09:33N 49°48' W 000°24'1 0.5
2017-Jan-10 08:33N 49°48' W 000°25'1 0.8
2017-Jan-10 07:33N 49°49' W 000°26'0 0.5
2017-Jan-10 06:34N 49°49' W 000°27'1 0.7
2017-Jan-10 05:33N 49°48' W 000°27'0 0.2
2017-Jan-10 04:33N 49°48' W 000°27'1 0.8
2017-Jan-10 03:33N 49°48' W 000°26'3 2.6
2017-Jan-10 02:33N 49°49' W 000°22'6 5.9
2017-Jan-10 01:33N 49°52' W 000°14'6 6.4
2017-Jan-10 00:33N 49°55' W 000°05'6 6.2
2017-Jan-09 23:33N 49°58' E 000°03'5 5.0
2017-Jan-09 22:33N 49°60' E 000°10'  
Track history (hours):
 
Tides and Currents Weather Stations Pressure Air Temp Water Temp Dewpoint Dewpoint Depression Visibility Wind Speed Wind Dir Waves Ship Positions

Sch-135 Galibier

Last reported at 2017-Jan-17 00:33 UTC. Time now 2017-Jan-17 00:57 UTC.
Position N 50°05' W 000°02'.

Length 35 m; draft 4.2 m.

Type: Fishing. MMSI: 244630637.

Date/timePositionNaut miles runAvg speedWind from/ knotsBaromVisibWave heightAir tempDewpointWater temp
2017-Jan-17 00:33N 50°05' W 000°02'5 5.3
2017-Jan-16 23:33N 50°00' W 000°05'5 5.1
2017-Jan-16 22:33N 49°56' W 000°10'3 2.8
2017-Jan-16 21:33N 49°54' W 000°13'1 1.0
2017-Jan-16 20:33N 49°55' W 000°14'4 3.7
2017-Jan-16 19:33N 49°58' W 000°17'4 4.0
2017-Jan-16 18:32N 50°01' W 000°13'4 4.4
2017-Jan-16 17:33N 50°04' W 000°08'1 1.1
2017-Jan-16 16:33N 50°05' W 000°07'1 1.2
2017-Jan-16 15:34N 50°05' W 000°05'1 1.1
2017-Jan-16 14:33N 50°04' W 000°03'3 3.2
2017-Jan-16 13:33N 50°03' E 000°01'6 6.1
2017-Jan-16 12:33N 49°59' E 000°08'1 1.0
2017-Jan-16 11:33N 49°58' E 000°07'1 1.0
2017-Jan-16 10:33N 49°58' E 000°05'6 5.7
2017-Jan-16 09:33N 50°03' E 000°08'3 2.8
2017-Jan-16 08:33N 50°06' E 000°07'2 1.3
2017-Jan-16 07:08N 50°06' E 000°10'  
2017-Jan-11 20:33N 49°60' E 000°14'1010.5
2017-Jan-11 19:34N 49°55' W 000°00'7 6.7
2017-Jan-11 18:33N 49°52' W 000°10'6 6.2
2017-Jan-11 17:33N 49°51' W 000°19'3 3.1
2017-Jan-11 16:33N 49°51' W 000°24'1 1.1
2017-Jan-11 15:33N 49°51' W 000°25'1 0.6
2017-Jan-11 14:33N 49°51' W 000°25'1 1.4
2017-Jan-11 13:33N 49°49' W 000°25'1 0.6
2017-Jan-11 12:33N 49°49' W 000°24'1 1.1
2017-Jan-11 11:33N 49°49' W 000°23'2 1.5
2017-Jan-11 10:33N 49°48' W 000°21'2 1.8
2017-Jan-11 09:33N 49°46' W 000°20'1 0.7
2017-Jan-11 08:33N 49°46' W 000°21'2 1.8
2017-Jan-11 07:33N 49°46' W 000°24'0 0.2
2017-Jan-11 06:33N 49°46' W 000°24'1 0.6
2017-Jan-11 05:33N 49°47' W 000°23'1 1.2
2017-Jan-11 04:33N 49°47' W 000°21'4 4.3
2017-Jan-11 03:33N 49°47' W 000°28'2 1.7
2017-Jan-11 02:33N 49°48' W 000°28'4 4.0
2017-Jan-11 01:33N 49°51' W 000°24'6 5.7
2017-Jan-11 00:33N 49°47' W 000°18'6 5.6
2017-Jan-10 23:33N 49°42' W 000°13'5 5.1
2017-Jan-10 22:33N 49°39' W 000°08'5 4.7
2017-Jan-10 21:33N 49°35' W 000°04'5 5.4
2017-Jan-10 20:33N 49°30' E 000°01'4 4.3
2017-Jan-10 19:33N 49°29' E 000°07'2 1.5
2017-Jan-10 18:33N 49°29' E 000°05'9 8.5
2017-Jan-10 17:33N 49°35' W 000°05'1110.9
2017-Jan-10 16:33N 49°42' W 000°18'6 6.3
2017-Jan-10 15:33N 49°46' W 000°25'2 2.2
2017-Jan-10 14:34N 49°47' W 000°27'2 1.5
2017-Jan-10 13:34N 49°49' W 000°27'1 1.0
2017-Jan-10 12:33N 49°48' W 000°27'1 0.7
2017-Jan-10 11:33N 49°48' W 000°26'2 2.0
2017-Jan-10 10:33N 49°50' W 000°23'1 1.2
2017-Jan-10 09:33N 49°48' W 000°24'1 0.5
2017-Jan-10 08:33N 49°48' W 000°25'1 0.8
2017-Jan-10 07:33N 49°49' W 000°26'0 0.5
2017-Jan-10 06:34N 49°49' W 000°27'1 0.7
2017-Jan-10 05:33N 49°48' W 000°27'0 0.2
2017-Jan-10 04:33N 49°48' W 000°27'1 0.8
2017-Jan-10 03:33N 49°48' W 000°26'3 2.6
2017-Jan-10 02:33N 49°49' W 000°22'6 5.9
2017-Jan-10 01:33N 49°52' W 000°14'6 6.4
2017-Jan-10 00:33N 49°55' W 000°05'6 6.2
2017-Jan-09 23:33N 49°58' E 000°03'5 5.0
2017-Jan-09 22:33N 49°60' E 000°10'  

Dump ship's entire track history